createdAt,value
2022-07-31T00:03:12.677Z,100.00
2022-07-31T00:08:15.187Z,100.00
2022-07-31T00:13:17.027Z,100.00
2022-07-31T00:18:18.844Z,100.00
2022-07-31T00:23:20.686Z,100.00
2022-07-31T00:28:22.479Z,100.00
2022-07-31T00:33:24.418Z,100.00
2022-07-31T00:38:27.278Z,100.00
2022-07-31T00:43:30.778Z,100.00
2022-07-31T00:48:33.957Z,100.00
2022-07-31T00:53:36.317Z,100.00
2022-07-31T00:58:38.137Z,100.00
2022-07-31T01:03:40.208Z,100.00
2022-07-31T01:08:42.055Z,100.00
2022-07-31T01:13:58.031Z,100.00
2022-07-31T01:19:05.118Z,100.00
2022-07-31T01:24:44.571Z,100.00
2022-07-31T01:30:01.304Z,100.00
2022-07-31T01:35:25.880Z,100.00
2022-07-31T01:40:37.570Z,100.00
2022-07-31T01:45:43.777Z,100.00
2022-07-31T01:50:49.751Z,100.00
2022-07-31T01:56:01.818Z,100.00
2022-07-31T02:01:13.996Z,100.00
2022-07-31T02:06:19.090Z,100.00
2022-07-31T02:11:22.130Z,100.00
2022-07-31T02:16:26.543Z,100.00
2022-07-31T02:21:37.960Z,100.00
2022-07-31T02:26:41.106Z,100.00
2022-07-31T02:31:44.830Z,100.00
2022-07-31T02:36:47.454Z,100.00
2022-07-31T02:41:50.062Z,100.00
2022-07-31T02:46:52.260Z,100.00
2022-07-31T02:51:55.797Z,100.00
2022-07-31T02:56:58.762Z,100.00
2022-07-31T03:02:00.790Z,100.00
2022-07-31T03:07:04.980Z,100.00
2022-07-31T03:12:07.793Z,100.00
2022-07-31T03:17:10.737Z,100.00
2022-07-31T03:22:15.436Z,100.00
2022-07-31T03:27:17.672Z,100.00
2022-07-31T03:32:19.659Z,100.00
2022-07-31T03:37:22.038Z,100.00
2022-07-31T03:42:25.020Z,100.00
2022-07-31T03:47:26.949Z,100.00
2022-07-31T03:52:29.712Z,100.00
2022-07-31T03:57:34.205Z,100.00
2022-07-31T04:02:36.758Z,100.00
2022-07-31T04:07:44.496Z,100.00
2022-07-31T04:12:46.374Z,100.00
2022-07-31T04:17:48.817Z,100.00
2022-07-31T04:22:55.684Z,100.00
2022-07-31T04:28:23.386Z,100.00
2022-07-31T04:33:25.826Z,100.00
2022-07-31T04:38:28.005Z,100.00
2022-07-31T04:43:31.155Z,100.00
2022-07-31T04:48:33.086Z,100.00
2022-07-31T04:53:35.019Z,100.00
2022-07-31T04:58:40.707Z,100.00
2022-07-31T05:03:42.543Z,100.00
2022-07-31T05:08:44.545Z,100.00
2022-07-31T05:13:46.415Z,100.00
2022-07-31T05:18:48.699Z,100.00
2022-07-31T05:24:16.876Z,100.00
2022-07-31T05:29:38.563Z,100.00
2022-07-31T05:34:41.129Z,100.00
2022-07-31T05:39:44.831Z,100.00
2022-07-31T05:45:05.393Z,100.00
2022-07-31T05:50:08.512Z,100.00
2022-07-31T05:55:10.485Z,100.00
2022-07-31T06:00:30.469Z,100.00
2022-07-31T06:05:35.092Z,100.00
2022-07-31T06:10:37.690Z,100.00
2022-07-31T06:15:49.056Z,100.00
2022-07-31T06:20:51.468Z,100.00
2022-07-31T06:25:53.398Z,100.00
2022-07-31T06:30:55.632Z,100.00
2022-07-31T06:35:57.560Z,100.00
2022-07-31T06:41:36.759Z,100.00
2022-07-31T06:46:57.176Z,100.00
2022-07-31T06:52:37.886Z,100.00
2022-07-31T06:57:40.556Z,100.00
2022-07-31T07:02:43.250Z,100.00
2022-07-31T07:07:45.257Z,100.00
2022-07-31T07:12:47.324Z,100.00
2022-07-31T07:17:50.101Z,100.00
2022-07-31T07:22:57.039Z,100.00
2022-07-31T07:28:15.232Z,100.00
2022-07-31T07:33:41.604Z,100.00
2022-07-31T07:38:56.192Z,100.00
2022-07-31T07:43:58.842Z,100.00
2022-07-31T07:49:03.583Z,100.00
2022-07-31T07:54:15.325Z,100.00
2022-07-31T07:59:36.055Z,100.00
2022-07-31T08:04:57.879Z,100.00
2022-07-31T08:10:00.560Z,100.00
2022-07-31T08:15:09.934Z,100.00
2022-07-31T08:20:38.466Z,100.00
2022-07-31T08:25:40.870Z,100.00
2022-07-31T08:30:43.186Z,100.00
2022-07-31T08:35:49.618Z,100.00
2022-07-31T08:40:53.374Z,100.00
2022-07-31T08:45:55.871Z,100.00
2022-07-31T08:51:05.508Z,100.00
2022-07-31T08:56:38.008Z,100.00
2022-07-31T09:01:39.990Z,100.00
2022-07-31T09:06:42.004Z,100.00
2022-07-31T09:11:48.669Z,100.00
2022-07-31T09:17:34.712Z,100.00
2022-07-31T09:22:36.719Z,100.00
2022-07-31T09:27:40.319Z,100.00
2022-07-31T09:32:43.368Z,100.00
2022-07-31T09:37:50.979Z,100.00
2022-07-31T09:43:19.999Z,100.00
2022-07-31T09:48:26.666Z,100.00
2022-07-31T09:53:50.304Z,100.00
2022-07-31T09:59:18.435Z,100.00
2022-07-31T10:04:22.720Z,100.00
2022-07-31T10:09:27.439Z,100.00
2022-07-31T10:14:45.092Z,100.00
2022-07-31T10:19:51.099Z,100.00
2022-07-31T10:25:25.901Z,100.00
2022-07-31T10:30:28.990Z,100.00
2022-07-31T10:35:41.395Z,100.00
2022-07-31T10:41:05.972Z,100.00
2022-07-31T10:46:07.891Z,100.00
2022-07-31T10:51:32.596Z,100.00
2022-07-31T10:57:00.455Z,100.00
2022-07-31T11:02:13.980Z,100.00
2022-07-31T11:07:37.807Z,100.00
2022-07-31T11:12:40.268Z,100.00
2022-07-31T11:18:21.193Z,100.00
2022-07-31T11:23:08.623Z,100.00
2022-07-31T11:28:10.575Z,100.00
2022-07-31T11:33:13.182Z,74.83
2022-07-31T11:38:15.099Z,54.83
2022-07-31T11:43:26.193Z,53.31
2022-07-31T11:48:37.410Z,48.48
2022-07-31T11:53:42.011Z,44.96
2022-07-31T11:58:52.023Z,45.65
2022-07-31T12:03:54.460Z,41.27
2022-07-31T12:08:56.701Z,41.06
2022-07-31T12:13:59.561Z,43.64
2022-07-31T12:19:01.356Z,42.03
2022-07-31T12:24:11.015Z,44.65
2022-07-31T12:29:13.253Z,46.85
2022-07-31T12:34:38.348Z,52.11
2022-07-31T12:39:59.303Z,52.32
2022-07-31T12:45:18.026Z,46.01
2022-07-31T12:50:23.092Z,37.83
2022-07-31T12:55:25.021Z,34.78
2022-07-31T13:00:28.057Z,36.78
2022-07-31T13:05:29.892Z,36.84
2022-07-31T13:10:32.297Z,32.96
2022-07-31T13:15:34.563Z,32.22
2022-07-31T13:20:36.375Z,31.46
2022-07-31T13:25:38.257Z,32.25
2022-07-31T13:30:40.106Z,31.07
2022-07-31T13:35:42.113Z,28.99
2022-07-31T13:41:02.306Z,30.59
2022-07-31T13:46:04.550Z,29.64
2022-07-31T13:51:06.398Z,27.42
2022-07-31T13:56:08.382Z,27.05
2022-07-31T14:01:10.327Z,29.47
2022-07-31T14:06:12.333Z,33.94
2022-07-31T14:11:15.299Z,33.12
2022-07-31T14:16:17.193Z,40.81
2022-07-31T14:21:19.026Z,44.28
2022-07-31T14:26:20.885Z,41.06
2022-07-31T14:31:22.707Z,34.96
2022-07-31T14:36:24.569Z,33.23
2022-07-31T14:41:26.380Z,36.29
2022-07-31T14:46:28.260Z,46.05
2022-07-31T14:51:30.081Z,51.50
2022-07-31T14:56:59.695Z,36.25
2022-07-31T15:01:54.007Z,32.83
2022-07-31T15:07:07.610Z,37.70
2022-07-31T15:12:17.794Z,39.12
2022-07-31T15:17:19.671Z,46.74
2022-07-31T15:22:21.511Z,45.49
2022-07-31T15:27:24.269Z,46.68
2022-07-31T15:32:25.909Z,48.78
2022-07-31T15:37:28.519Z,50.89
2022-07-31T15:42:40.756Z,53.07
2022-07-31T15:47:43.421Z,55.03
2022-07-31T15:52:45.108Z,67.19
2022-07-31T15:57:47.158Z,66.76
2022-07-31T16:02:50.056Z,64.20
2022-07-31T16:08:30.981Z,67.21
2022-07-31T16:13:16.435Z,69.86
2022-07-31T16:18:18.771Z,75.56
2022-07-31T16:23:20.644Z,71.96
2022-07-31T16:28:22.332Z,69.19
2022-07-31T16:33:23.953Z,64.56
2022-07-31T16:38:25.651Z,64.63
2022-07-31T16:43:50.348Z,78.41
2022-07-31T16:48:49.009Z,76.62
2022-07-31T16:54:14.500Z,80.88
2022-07-31T16:59:12.338Z,86.26
2022-07-31T17:04:14.333Z,98.51
2022-07-31T17:09:18.564Z,100.00
2022-07-31T17:14:22.207Z,97.29
2022-07-31T17:19:41.260Z,100.00
2022-07-31T17:24:51.141Z,100.00
2022-07-31T17:29:53.198Z,100.00
2022-07-31T17:34:54.930Z,100.00
2022-07-31T17:39:57.827Z,100.00
2022-07-31T17:45:01.903Z,100.00
2022-07-31T17:50:04.284Z,100.00
2022-07-31T17:55:06.934Z,100.00
2022-07-31T18:00:09.983Z,100.00
2022-07-31T18:05:11.793Z,100.00
2022-07-31T18:10:13.541Z,100.00
2022-07-31T18:15:15.423Z,100.00
2022-07-31T18:20:21.747Z,100.00
2022-07-31T18:25:23.443Z,100.00
2022-07-31T18:30:30.366Z,100.00
2022-07-31T18:35:34.496Z,100.00
2022-07-31T18:40:36.280Z,100.00
2022-07-31T18:45:41.592Z,100.00
2022-07-31T18:50:59.054Z,100.00
2022-07-31T18:56:05.151Z,100.00
2022-07-31T19:01:06.776Z,100.00
2022-07-31T19:06:08.414Z,100.00
2022-07-31T19:11:11.693Z,100.00
2022-07-31T19:16:13.492Z,100.00
2022-07-31T19:21:19.453Z,100.00
2022-07-31T19:26:25.674Z,100.00
2022-07-31T19:31:27.579Z,100.00
2022-07-31T19:36:29.268Z,100.00
2022-07-31T19:41:32.721Z,100.00
2022-07-31T19:46:35.811Z,100.00
2022-07-31T19:51:37.489Z,100.00
2022-07-31T19:56:39.123Z,100.00
2022-07-31T20:01:40.829Z,100.00
2022-07-31T20:06:42.504Z,100.00
2022-07-31T20:11:44.375Z,100.00
2022-07-31T20:16:46.023Z,100.00
2022-07-31T20:21:47.738Z,100.00
2022-07-31T20:26:51.647Z,100.00
2022-07-31T20:31:53.629Z,100.00
2022-07-31T20:36:55.529Z,100.00
2022-07-31T20:41:58.619Z,100.00
2022-07-31T20:47:00.376Z,100.00
2022-07-31T20:52:02.320Z,100.00
2022-07-31T20:57:04.180Z,100.00
2022-07-31T21:02:06.160Z,100.00
2022-07-31T21:07:07.866Z,100.00
2022-07-31T21:12:09.676Z,100.00
2022-07-31T21:17:11.347Z,100.00
2022-07-31T21:22:13.109Z,100.00
2022-07-31T21:27:17.777Z,100.00
2022-07-31T21:32:19.843Z,100.00
2022-07-31T21:37:23.044Z,100.00
2022-07-31T21:42:25.124Z,100.00
2022-07-31T21:47:30.312Z,100.00
2022-07-31T21:52:52.130Z,100.00
2022-07-31T21:57:59.069Z,100.00
2022-07-31T22:03:03.322Z,100.00
2022-07-31T22:08:05.316Z,100.00
2022-07-31T22:13:10.420Z,100.00
2022-07-31T22:18:12.509Z,100.00
2022-07-31T22:23:14.696Z,100.00
2022-07-31T22:28:21.842Z,100.00
2022-07-31T22:33:23.950Z,100.00
2022-07-31T22:38:27.214Z,100.00
2022-07-31T22:44:10.289Z,100.00
2022-07-31T22:48:53.579Z,100.00
2022-07-31T22:53:55.444Z,100.00
2022-07-31T22:58:57.290Z,100.00
2022-07-31T23:03:59.118Z,100.00
2022-07-31T23:09:01.888Z,100.00
2022-07-31T23:14:03.997Z,100.00
2022-07-31T23:19:06.012Z,100.00
2022-07-31T23:24:08.484Z,100.00
2022-07-31T23:29:10.321Z,100.00
2022-07-31T23:34:12.194Z,100.00
2022-07-31T23:39:14.122Z,100.00
2022-07-31T23:44:18.671Z,100.00
2022-07-31T23:49:27.136Z,100.00
2022-07-31T23:54:29.129Z,100.00
2022-07-31T23:59:31.067Z,100.00
